Time;durP1;ratioP1;P1;durP2;ratioP2;P2;SDS_P1;SDS_P2;PMS_P1;PMS_P2;Temp;Humidity;BMP_temperature;BMP_pressure;BME280_temperature;BME280_humidity;BME280_pressure;Samples;Min_cycle;Max_cycle;Signal;HPM_P1;HPM_P2
2022/07/30 00:02:00;;;;;;;;;3.00;3.00;;;;;24.73;34.13;101524.72;6251142;22;45165;-81
2022/07/30 00:04:26;;;;;;;;;3.00;2.00;;;;;24.67;33.74;101533.06;6251226;22;45392;-81
2022/07/30 00:06:51;;;;;;;;;3.00;2.00;;;;;24.62;34.08;101522.56;6250963;22;45336;-82
2022/07/30 00:09:17;;;;;;;;;4.00;3.00;;;;;24.52;33.74;101515.88;6278853;22;46116;-82
2022/07/30 00:11:43;;;;;;;;;4.00;4.00;;;;;24.58;34.41;101531.72;6251773;22;45761;-82
2022/07/30 00:14:08;;;;;;;;;3.00;3.00;;;;;24.46;34.33;101506.31;6250964;22;45311;-83
2022/07/30 00:16:34;;;;;;;;;3.25;3.25;;;;;24.42;34.14;101510.91;6278644;22;45442;-82
2022/07/30 00:19:01;;;;;;;;;3.00;3.00;;;;;24.56;34.38;101528.22;6278608;22;46195;-83
2022/07/30 00:21:26;;;;;;;;;5.75;4.50;;;;;24.51;34.21;101517.72;6249555;22;45169;-82
2022/07/30 00:23:51;;;;;;;;;4.00;4.00;;;;;24.45;34.45;101509.91;6277266;22;45252;-82
2022/07/30 00:26:17;;;;;;;;;3.75;3.50;;;;;24.39;34.82;101496.75;6278723;22;45391;-82
2022/07/30 00:28:42;;;;;;;;;2.00;2.00;;;;;24.43;34.64;101519.84;6250281;22;46008;-83
2022/07/30 00:31:07;;;;;;;;;4.00;4.00;;;;;24.48;35.24;101520.53;6278681;22;45168;-82
2022/07/30 00:33:33;;;;;;;;;3.50;3.50;;;;;24.46;34.99;101521.56;6278526;22;45241;-82
2022/07/30 00:35:58;;;;;;;;;4.50;4.50;;;;;24.39;35.32;101510.19;6278587;22;45167;-82
2022/07/30 00:38:24;;;;;;;;;3.75;3.75;;;;;24.48;35.41;101528.59;6278549;22;45282;-84
2022/07/30 00:40:49;;;;;;;;;3.00;3.00;;;;;24.40;34.96;101512.84;6278737;22;45186;-82
2022/07/30 00:43:17;;;;;;;;;3.00;3.00;;;;;24.41;35.42;101530.72;6278254;22;45133;-82
2022/07/30 00:45:46;;;;;;;;;5.50;3.25;;;;;24.39;35.24;101520.97;6278549;22;45364;-82
2022/07/30 00:48:13;;;;;;;;;5.33;5.33;;;;;24.37;35.15;101523.72;6277703;22;45305;-83
2022/07/30 00:50:38;;;;;;;;;4.00;4.00;;;;;24.36;35.96;101515.75;6278384;22;45284;-82
2022/07/30 00:53:05;;;;;;;;;4.00;3.00;;;;;24.41;35.39;101527.16;6278961;22;45415;-82
2022/07/30 00:55:30;;;;;;;;;4.50;4.50;;;;;24.26;35.56;101495.59;6250211;22;45252;-82
2022/07/30 00:57:56;;;;;;;;;5.00;4.25;;;;;24.37;35.79;101517.47;6278109;22;45343;-81
2022/07/30 01:00:22;;;;;;;;;5.00;5.00;;;;;24.31;36.08;101509.72;6278629;22;45244;-83
2022/07/30 01:02:48;;;;;;;;;4.00;4.00;;;;;24.31;36.07;101513.25;6278523;22;45255;-84
2022/07/30 01:05:13;;;;;;;;;4.25;4.25;;;;;24.20;36.04;101505.72;6279066;22;45180;-84
2022/07/30 01:07:39;;;;;;;;;3.25;3.25;;;;;24.14;36.28;101497.09;6250609;22;48235;-83
2022/07/30 01:10:06;;;;;;;;;5.75;5.75;;;;;24.17;36.14;101510.38;6250641;22;45313;-84
2022/07/30 01:12:32;;;;;;;;;4.00;4.00;;;;;24.22;36.67;101519.09;6249584;22;45260;-84
2022/07/30 01:15:00;;;;;;;;;8.50;5.00;;;;;24.12;36.90;101502.53;6276254;22;45736;-84
2022/07/30 01:17:26;;;;;;;;;3.75;3.75;;;;;24.15;37.00;101510.44;6277759;22;45396;-84
2022/07/30 01:19:54;;;;;;;;;4.75;4.75;;;;;24.17;36.60;101510.38;6252503;22;45572;-83
2022/07/30 01:22:29;;;;;;;;;5.00;5.00;;;;;24.18;36.64;101510.28;6250014;22;45407;-83
2022/07/30 01:24:54;;;;;;;;;4.25;4.25;;;;;24.19;37.20;101512.06;6275961;22;45418;-84
2022/07/30 01:27:21;;;;;;;;;4.50;4.50;;;;;24.17;36.81;101507.69;6277426;22;45315;-84
2022/07/30 01:29:49;;;;;;;;;4.00;4.00;;;;;24.08;36.94;101486.59;6250090;22;45308;-84
2022/07/30 01:32:18;;;;;;;;;4.50;4.50;;;;;24.13;36.68;101503.38;6278590;22;45165;-83
2022/07/30 01:34:45;;;;;;;;;5.00;5.00;;;;;24.07;37.37;101501.88;6279199;22;45426;-84
2022/07/30 01:37:11;;;;;;;;;6.25;5.75;;;;;24.02;37.04;101495.84;6279125;22;46240;-84
2022/07/30 01:39:38;;;;;;;;;4.50;4.50;;;;;24.05;37.54;101509.13;6279362;22;45099;-83
2022/07/30 01:42:07;;;;;;;;;7.00;4.00;;;;;24.03;37.76;101521.81;6279411;22;45231;-84
2022/07/30 01:44:33;;;;;;;;;5.67;5.00;;;;;23.94;37.25;101512.34;6251371;22;45414;-84
2022/07/30 01:47:00;;;;;;;;;3.00;3.00;;;;;23.92;37.51;101503.50;6251996;22;47505;-84
2022/07/30 01:49:28;;;;;;;;;7.25;6.25;;;;;23.92;37.45;101507.97;6276791;22;46203;-83
2022/07/30 01:51:56;;;;;;;;;5.00;5.00;;;;;23.87;37.68;101507.31;6251480;22;45295;-84
2022/07/30 01:54:25;;;;;;;;;4.00;4.00;;;;;23.90;38.02;101509.88;6251788;22;45468;-84
2022/07/30 01:56:55;;;;;;;;;5.00;5.00;;;;;23.80;38.01;101503.19;6278794;22;46372;-84
2022/07/30 01:59:24;;;;;;;;;5.75;5.25;;;;;23.74;38.03;101497.16;6251800;22;45234;-84
2022/07/30 02:01:49;;;;;;;;;4.50;3.75;;;;;23.68;38.38;101488.44;6252393;22;45340;-83
2022/07/30 02:04:15;;;;;;;;;5.75;5.75;;;;;23.63;38.26;101491.38;6279572;22;45472;-84
2022/07/30 02:07:18;;;;;;;;;3.33;3.33;;;;;23.67;38.13;101497.47;6251381;22;47671;-84
2022/07/30 02:09:58;;;;;;;;;4.50;4.50;;;;;23.67;38.24;101503.72;6279039;22;45382;-84
2022/07/30 02:12:27;;;;;;;;;4.00;4.00;;;;;23.58;38.73;101495.22;6278903;22;45378;-84
2022/07/30 02:15:05;;;;;;;;;4.67;4.67;;;;;23.60;38.96;101494.19;6277981;22;45886;-84
2022/07/30 02:17:41;;;;;;;;;5.00;5.00;;;;;23.50;38.83;101493.75;6251387;22;46227;-84
2022/07/30 02:20:09;;;;;;;;;5.00;5.00;;;;;23.51;38.60;101505.38;6279143;22;45350;-84
2022/07/30 02:22:38;;;;;;;;;6.00;6.00;;;;;23.48;38.49;101500.13;6251284;22;45277;-83
2022/07/30 02:25:05;;;;;;;;;5.00;5.00;;;;;23.45;39.30;101494.91;6251333;22;45356;-83
2022/07/30 02:27:34;;;;;;;;;7.00;7.00;;;;;23.45;39.25;101498.47;6278964;22;45340;-84
2022/07/30 02:30:02;;;;;;;;;5.25;5.25;;;;;23.33;38.92;101477.50;6278930;22;45510;-83
2022/07/30 02:32:32;;;;;;;;;4.25;4.25;;;;;23.33;39.13;101474.81;6279332;22;45331;-83
2022/07/30 02:35:04;;;;;;;;;4.00;4.00;;;;;23.29;39.27;101476.78;6251041;22;45441;-83
2022/07/30 02:37:31;;;;;;;;;7.25;6.25;;;;;23.27;39.10;101477.78;6279102;22;46009;-83
2022/07/30 02:39:58;;;;;;;;;6.00;6.00;;;;;23.33;39.04;101493.63;6279358;22;45299;-83
2022/07/30 02:42:25;;;;;;;;;4.75;4.00;;;;;23.29;39.10;101498.28;6280508;22;45231;-83
2022/07/30 02:44:52;;;;;;;;;5.25;5.25;;;;;23.18;39.14;101488.97;6250737;22;45636;-84
2022/07/30 02:47:20;;;;;;;;;5.75;5.75;;;;;23.13;39.33;101486.47;6251081;22;47420;-83
2022/07/30 02:49:49;;;;;;;;;5.75;5.75;;;;;23.03;39.28;101477.94;6278023;22;45141;-82
2022/07/30 02:52:16;;;;;;;;;6.50;6.50;;;;;22.97;39.79;101482.72;6278850;22;45118;-84
2022/07/30 02:54:43;;;;;;;;;5.75;5.75;;;;;22.97;39.60;101499.69;6277424;22;45327;-84
2022/07/30 02:57:10;;;;;;;;;9.00;8.00;;;;;22.83;39.87;101478.78;6250987;22;47315;-83
2022/07/30 02:59:38;;;;;;;;;8.25;5.50;;;;;22.82;39.81;101494.94;6250987;22;45425;-84
2022/07/30 03:02:06;;;;;;;;;8.00;7.50;;;;;22.71;39.83;101483.81;6251457;22;45142;-84
2022/07/30 03:04:32;;;;;;;;;5.75;5.75;;;;;22.73;39.87;101496.22;6276867;22;45680;-84
2022/07/30 03:06:59;;;;;;;;;5.00;5.00;;;;;22.65;40.20;101495.69;6276803;22;47426;-84
2022/07/30 03:09:26;;;;;;;;;4.50;4.50;;;;;22.71;40.10;101510.66;6251583;22;45337;-83
2022/07/30 03:11:54;;;;;;;;;5.50;5.25;;;;;22.66;40.23;101511.69;6279008;22;45263;-84
2022/07/30 03:14:20;;;;;;;;;5.00;5.00;;;;;22.62;39.93;101503.88;6276611;22;45270;-84
2022/07/30 03:16:50;;;;;;;;;4.25;4.25;;;;;22.57;40.18;101495.13;6278903;22;45106;-84
2022/07/30 03:19:21;;;;;;;;;3.75;3.75;;;;;22.56;40.17;101496.94;6250048;22;45272;-84
2022/07/30 03:21:49;;;;;;;;;4.25;4.00;;;;;22.51;39.92;101493.59;6253361;22;45273;-84
2022/07/30 03:24:16;;;;;;;;;5.00;5.00;;;;;22.54;40.06;101500.63;6279078;22;45292;-83
2022/07/30 03:26:44;;;;;;;;;5.50;5.50;;;;;22.51;40.25;101503.41;6278114;22;45423;-83
2022/07/30 03:29:13;;;;;;;;;5.75;4.75;;;;;22.41;40.18;101494.88;6278981;22;45173;-83
2022/07/30 03:31:39;;;;;;;;;4.00;4.00;;;;;22.51;40.17;101509.69;6276987;22;45375;-83
2022/07/30 03:34:07;;;;;;;;;5.00;5.00;;;;;22.39;40.00;101486.88;6280364;22;45252;-83
2022/07/30 03:36:34;;;;;;;;;5.00;4.00;;;;;22.36;40.29;101492.38;6279162;22;45220;-83
2022/07/30 03:39:02;;;;;;;;;5.00;3.00;;;;;22.40;40.57;101502.06;6278853;22;45105;-82
2022/07/30 03:41:29;;;;;;;;;6.75;6.75;;;;;22.44;40.49;101497.44;6278823;22;45321;-83
2022/07/30 03:43:55;;;;;;;;;5.75;5.75;;;;;22.31;40.64;101485.47;6278816;22;45302;-83
2022/07/30 03:46:22;;;;;;;;;7.00;5.50;;;;;22.44;40.49;101508.19;6278826;22;45362;-83
2022/07/30 03:48:47;;;;;;;;;4.25;4.00;;;;;22.41;40.58;101511.84;6252179;22;45409;-83
2022/07/30 03:51:13;;;;;;;;;5.00;5.00;;;;;22.27;40.92;101486.53;6277498;22;45323;-83
2022/07/30 03:53:40;;;;;;;;;5.00;5.00;;;;;22.37;40.56;101509.34;6276973;22;45434;-83
2022/07/30 03:56:07;;;;;;;;;8.75;5.75;;;;;22.14;40.65;101481.63;6249437;22;47359;-83
2022/07/30 03:58:32;;;;;;;;;5.50;5.25;;;;;22.34;40.52;101515.72;6250757;22;45281;-83
2022/07/30 04:00:58;;;;;;;;;6.25;5.25;;;;;22.33;40.60;101508.63;6279119;22;45243;-83
2022/07/30 04:03:25;;;;;;;;;8.00;7.00;;;;;22.21;40.63;101493.00;6281496;22;45354;-83
2022/07/30 04:05:50;;;;;;;;;5.25;5.25;;;;;22.17;41.21;101489.53;6276798;22;47758;-83
2022/07/30 04:08:15;;;;;;;;;5.50;5.00;;;;;22.12;41.61;101493.34;6278402;22;45378;-83
2022/07/30 04:10:41;;;;;;;;;7.00;6.00;;;;;22.21;41.93;101510.00;6276501;22;45313;-83
2022/07/30 04:13:06;;;;;;;;;7.75;5.75;;;;;22.20;42.12;101508.22;6278635;22;45574;-83
2022/07/30 04:15:40;;;;;;;;;5.25;5.25;;;;;22.06;41.99;101496.28;6279335;22;46493;-83
2022/07/30 04:18:09;;;;;;;;;4.75;4.75;;;;;22.12;41.68;101512.13;6279129;22;45229;-83
2022/07/30 04:20:40;;;;;;;;;6.50;6.50;;;;;22.06;41.71;101498.97;6278902;22;45187;-83
2022/07/30 04:23:10;;;;;;;;;7.00;5.75;;;;;22.13;41.44;101514.75;6251016;22;45427;-83
2022/07/30 04:25:36;;;;;;;;;4.00;4.00;;;;;22.06;41.02;101513.25;6250832;22;47658;-83
2022/07/30 04:28:03;;;;;;;;;5.00;5.00;;;;;22.10;41.39;101525.59;6250553;22;45215;-83
2022/07/30 04:30:30;;;;;;;;;6.00;6.00;;;;;22.09;41.35;101528.34;6252108;22;45323;-84
2022/07/30 04:32:55;;;;;;;;;5.25;5.00;;;;;21.94;41.38;101514.56;6251742;22;45426;-83
2022/07/30 04:35:33;;;;;;;;;5.00;4.75;;;;;21.95;41.39;101515.47;6276403;22;46894;-83
2022/07/30 04:37:59;;;;;;;;;5.75;5.00;;;;;21.98;41.41;101521.59;6250192;22;45874;-84
2022/07/30 04:40:24;;;;;;;;;6.00;5.00;;;;;21.96;41.59;101514.53;6278620;22;45246;-84
2022/07/30 04:42:50;;;;;;;;;5.00;5.00;;;;;21.83;41.01;101503.41;6276074;22;45438;-83
2022/07/30 04:45:19;;;;;;;;;4.00;4.00;;;;;21.85;41.48;101512.25;6251049;22;47814;-84
2022/07/30 04:47:45;;;;;;;;;6.25;5.00;;;;;21.87;41.46;101515.78;6276582;22;45422;-84
2022/07/30 04:50:12;;;;;;;;;4.50;4.50;;;;;21.78;41.32;101505.38;6278037;22;45357;-84
2022/07/30 04:52:39;;;;;;;;;5.50;5.50;;;;;21.83;41.33;101507.91;6275928;22;45359;-83
2022/07/30 04:55:06;;;;;;;;;5.00;5.00;;;;;21.78;41.59;101500.03;6276121;22;47384;-85
2022/07/30 04:57:32;;;;;;;;;4.00;3.75;;;;;21.67;41.33;101487.03;6250323;22;45241;-83
2022/07/30 04:59:58;;;;;;;;;6.75;5.00;;;;;21.76;41.49;101518.00;6250700;22;45289;-84
2022/07/30 05:02:28;;;;;;;;;6.00;5.00;;;;;21.73;42.00;101512.72;6276038;22;45359;-84
2022/07/30 05:04:55;;;;;;;;;4.75;4.75;;;;;21.75;41.63;101506.38;6250282;22;48530;-84
2022/07/30 05:07:21;;;;;;;;;6.00;4.00;;;;;21.78;41.97;101522.38;6250923;22;45219;-84
2022/07/30 05:09:48;;;;;;;;;5.00;4.75;;;;;21.79;41.74;101524.09;6281383;22;45255;-84
2022/07/30 05:12:13;;;;;;;;;4.00;4.00;;;;;21.75;42.03;101518.91;6253156;22;45507;-84
2022/07/30 05:14:39;;;;;;;;;3.00;3.00;;;;;21.90;41.60;101541.59;6251585;22;47054;-84
2022/07/30 05:17:04;;;;;;;;;5.50;5.50;;;;;21.85;41.57;101539.06;6251772;22;45365;-84
2022/07/30 05:19:30;;;;;;;;;4.00;4.00;;;;;21.80;42.07;101528.50;6280034;22;45358;-84
2022/07/30 05:21:55;;;;;;;;;6.00;6.00;;;;;21.84;42.16;101526.63;6279790;22;45181;-84
2022/07/30 05:24:21;;;;;;;;;7.50;6.00;;;;;21.88;43.13;101530.03;6252410;22;46773;-85
2022/07/30 05:26:46;;;;;;;;;11.00;8.25;;;;;21.91;43.17;101538.84;6252011;22;45326;-84
2022/07/30 05:29:12;;;;;;;;;10.25;9.00;;;;;21.86;43.10;101529.22;6280075;22;45302;-84
2022/07/30 05:31:38;;;;;;;;;7.00;7.00;;;;;21.85;43.83;101531.03;6251463;22;45394;-84
2022/07/30 05:34:03;;;;;;;;;8.25;7.25;;;;;21.80;44.14;101523.16;6279289;22;46207;-83
2022/07/30 05:36:29;;;;;;;;;7.00;7.00;;;;;21.91;44.31;101535.28;6251428;22;45198;-80
2022/07/30 05:38:55;;;;;;;;;8.50;7.00;;;;;22.02;44.32;101555.41;6252137;22;45190;-82
2022/07/30 05:41:20;;;;;;;;;8.25;8.25;;;;;21.98;44.06;101542.16;6251416;22;45660;-82
2022/07/30 05:43:45;;;;;;;;;7.00;7.00;;;;;21.96;44.07;101541.34;6277378;22;47215;-83
2022/07/30 05:46:11;;;;;;;;;9.00;9.00;;;;;22.00;44.43;101556.41;6279414;22;45255;-82
2022/07/30 05:48:37;;;;;;;;;10.50;8.25;;;;;21.82;44.42;101517.75;6278781;22;45175;-82
2022/07/30 05:51:03;;;;;;;;;12.50;11.50;;;;;21.93;44.08;101531.63;6279309;22;45275;-82
2022/07/30 05:53:28;;;;;;;;;12.75;11.50;;;;;21.85;44.56;101522.13;6251486;22;47215;-82
2022/07/30 05:55:54;;;;;;;;;10.50;9.00;;;;;21.95;44.92;101544.97;6279144;22;45252;-82
2022/07/30 05:58:20;;;;;;;;;10.25;8.25;;;;;22.01;44.52;101556.31;6251609;22;45320;-82
2022/07/30 06:00:45;;;;;;;;;7.00;7.00;;;;;22.04;43.94;101560.69;6277482;22;45441;-83
2022/07/30 06:03:11;;;;;;;;;11.50;10.25;;;;;22.05;44.58;101562.44;6251242;22;46239;-83
2022/07/30 06:05:37;;;;;;;;;9.75;8.00;;;;;21.97;44.48;101549.34;6277608;22;45345;-83
2022/07/30 06:08:02;;;;;;;;;10.25;10.25;;;;;22.00;44.51;101551.03;6277679;22;45251;-83
2022/07/30 06:10:28;;;;;;;;;10.00;7.25;;;;;22.11;44.10;101567.59;6251532;22;45486;-84
2022/07/30 06:12:54;;;;;;;;;10.00;9.00;;;;;21.96;44.03;101536.84;6250821;22;48147;-85
2022/07/30 06:15:19;;;;;;;;;10.00;9.00;;;;;21.96;44.39;101539.53;6251861;22;45165;-83
2022/07/30 06:17:46;;;;;;;;;7.50;7.50;;;;;21.98;44.36;101547.53;6251313;22;45200;-83
2022/07/30 06:20:14;;;;;;;;;9.25;8.00;;;;;21.99;44.48;101542.09;6277423;22;45539;-84
2022/07/30 06:22:40;;;;;;;;;8.00;8.00;;;;;22.15;43.99;101558.47;6251013;22;47373;-84
2022/07/30 06:25:06;;;;;;;;;10.00;9.00;;;;;22.16;43.88;101557.56;6251384;22;45363;-83
2022/07/30 06:27:32;;;;;;;;;12.00;10.50;;;;;22.31;43.99;101580.22;6277057;22;45339;-84
2022/07/30 06:30:05;;;;;;;;;10.50;10.50;;;;;22.32;44.21;101567.69;6251464;22;45555;-83
2022/07/30 06:32:31;;;;;;;;;8.75;7.25;;;;;22.44;43.95;101578.81;6279969;22;45425;-86
2022/07/30 06:34:56;;;;;;;;;9.00;9.00;;;;;22.48;43.86;101589.41;6279674;22;45307;-83
2022/07/30 06:37:22;;;;;;;;;11.25;10.00;;;;;22.47;44.03;101583.19;6279618;22;45526;-83
2022/07/30 06:39:47;;;;;;;;;10.75;9.25;;;;;22.57;43.90;101603.34;6279132;22;45113;-82
2022/07/30 06:42:13;;;;;;;;;8.75;7.25;;;;;22.53;43.69;101588.28;6278856;22;45343;-83
2022/07/30 06:44:38;;;;;;;;;8.25;8.25;;;;;22.51;43.68;101573.19;6276260;22;45682;-84
2022/07/30 06:47:04;;;;;;;;;8.50;8.50;;;;;22.58;43.38;101591.66;6251733;22;45221;-85
2022/07/30 06:49:34;;;;;;;;;8.50;7.75;;;;;22.62;43.13;101592.44;6246569;22;45407;-83
2022/07/30 06:51:59;;;;;;;;;7.75;4.75;;;;;22.56;43.37;101572.09;6246381;22;48512;-81
2022/07/30 06:54:25;;;;;;;;;9.25;8.00;;;;;22.75;43.22;101599.06;6220732;22;45364;-80
2022/07/30 06:56:50;;;;;;;;;10.00;9.00;;;;;22.71;43.13;101583.13;6248066;22;45311;-80
2022/07/30 06:59:15;;;;;;;;;7.25;7.00;;;;;22.82;42.99;101595.16;6245880;22;45285;-81
2022/07/30 07:01:41;;;;;;;;;6.50;6.50;;;;;22.81;42.88;101590.75;6220683;22;46680;-81
2022/07/30 07:04:07;;;;;;;;;7.25;7.25;;;;;22.89;42.94;101602.03;6245953;22;45254;-80
2022/07/30 07:06:32;;;;;;;;;6.75;6.50;;;;;22.89;42.76;101593.13;6248637;22;45290;-80
2022/07/30 07:08:58;;;;;;;;;7.00;6.25;;;;;22.88;42.70;101596.72;6245935;22;45368;-81
2022/07/30 07:11:23;;;;;;;;;10.25;8.00;;;;;22.95;42.61;101610.78;6245321;22;47211;-81
2022/07/30 07:25:21;;;;;;;;;;;;;;;;;;;;;
2022/07/30 07:28:06;;;;;;;;;;;;;;;;;;;;;
2022/07/30 07:34:17;;;;;;;;;7.00;6.00;;;;;23.42;41.41;101595.38;6224468;22;45518;-80
2022/07/30 07:41:28;;;;;;;;;;;;;;;;;;;;;
2022/07/30 07:47:22;;;;;;;;;11.50;7.00;;;;;23.70;40.29;101592.31;6014985;23;45216;-82
2022/07/30 07:49:56;;;;;;;;;8.00;8.00;;;;;23.72;40.51;101585.06;6092064;23;47006;-82
2022/07/30 07:52:57;;;;;;;;;;;;;;;;;;;;;
2022/07/30 07:55:40;;;;;;;;;4.00;4.00;;;;;23.89;40.31;101584.31;6257170;22;68768;-85
2022/07/30 07:58:48;;;;;;;;;;;;;;;;;;;;;
2022/07/30 08:02:10;;;;;;;;;;;;;;;;;;;;;
2022/07/30 08:08:14;;;;;;;;;13.25;11.50;;;;;24.49;39.45;101594.13;6143541;23;45151;-88
2022/07/30 08:14:57;;;;;;;;;;;;;;;;;;;;;
2022/07/30 08:25:26;;;;;;;;;;;;;;;;;;;;;
2022/07/30 08:28:48;;;;;;;;;;;;;;;;;;;;;
2022/07/30 09:13:57;;;;;;;;;;;;;;;;;;;;;
2022/07/30 09:16:35;;;;;;;;;6.00;5.67;;;;;26.87;33.74;101611.19;5792708;24;68400;-90
2022/07/30 09:19:50;;;;;;;;;;;;;;;;;;;;;
2022/07/30 09:22:57;;;;;;;;;;;;;;;;;;;;;
2022/07/30 09:25:42;;;;;;;;;3.00;3.00;;;;;27.11;32.34;101614.28;6063128;23;72836;-91
2022/07/30 09:28:09;;;;;;;;;4.00;3.00;;;;;27.18;32.38;101626.50;6065572;23;44972;-86
2022/07/30 09:31:29;;;;;;;;;4.00;4.00;;;;;27.23;32.22;101609.03;6065987;23;45422;-83
2022/07/30 09:33:54;;;;;;;;;4.33;4.33;;;;;27.27;31.87;101607.03;6088593;23;48148;-83
2022/07/30 09:50:46;;;;;;;;;;;;;;;;;;;;;
2022/07/30 09:53:22;;;;;;;;;5.67;3.33;;;;;27.62;31.09;101618.41;6089952;23;45376;-81
2022/07/30 09:55:47;;;;;;;;;3.67;3.67;;;;;27.69;30.86;101632.41;6095993;23;45555;-81
2022/07/30 09:58:13;;;;;;;;;4.33;4.33;;;;;27.67;30.66;101613.56;6232111;22;45439;-82
2022/07/30 10:00:40;;;;;;;;;4.00;3.67;;;;;27.72;31.21;101618.72;6217786;22;45328;-80
2022/07/30 10:03:20;;;;;;;;;5.00;4.00;;;;;27.82;31.24;101624.44;6245712;22;45289;-79
2022/07/30 10:05:56;;;;;;;;;4.00;4.00;;;;;27.91;30.25;101622.03;6244444;22;45426;-79
2022/07/30 10:08:42;;;;;;;;;4.00;4.00;;;;;27.92;30.46;101610.22;6245687;22;45603;-78
2022/07/30 10:11:19;;;;;;;;;5.00;5.00;;;;;28.01;30.53;101613.31;6245823;22;45352;-79
2022/07/30 10:13:47;;;;;;;;;4.50;4.50;;;;;28.04;30.33;101602.28;6217750;22;45276;-80
2022/07/30 10:16:12;;;;;;;;;3.00;3.00;;;;;28.15;30.46;101602.50;6218201;22;45211;-78
2022/07/30 10:18:41;;;;;;;;;3.00;3.00;;;;;28.24;30.45;101609.16;6246001;22;46184;-79
2022/07/30 10:21:07;;;;;;;;;4.67;4.67;;;;;28.34;30.61;101610.31;6245850;22;45579;-82
2022/07/30 10:23:37;;;;;;;;;4.75;4.00;;;;;28.35;30.79;101593.94;6245809;22;45237;-82
2022/07/30 10:26:07;;;;;;;;;4.25;3.50;;;;;28.43;30.42;101590.78;6242781;22;45544;-83
2022/07/30 10:28:33;;;;;;;;;3.00;3.00;;;;;28.62;30.73;101598.56;6217275;22;46039;-83
2022/07/30 10:30:59;;;;;;;;;3.25;3.25;;;;;28.76;30.79;101601.25;6242575;22;45320;-80
2022/07/30 10:33:27;;;;;;;;;4.00;3.00;;;;;28.87;30.02;101608.66;6218715;22;45330;-78
2022/07/30 10:35:53;;;;;;;;;6.75;5.75;;;;;28.98;30.15;101599.78;6217371;22;45762;-80
2022/07/30 10:38:22;;;;;;;;;3.00;3.00;;;;;29.04;29.79;101596.69;6217979;22;47235;-79
2022/07/30 10:41:07;;;;;;;;;4.00;4.00;;;;;29.12;29.80;101590.75;6219135;22;45245;-80
2022/07/30 10:44:03;;;;;;;;;3.00;3.00;;;;;29.27;29.51;101594.22;6217861;22;45202;-80
2022/07/30 10:46:59;;;;;;;;;7.67;6.00;;;;;29.43;29.31;101598.50;6245913;22;45298;-83
2022/07/30 10:49:25;;;;;;;;;5.00;4.00;;;;;29.45;29.02;101588.38;6219525;22;47436;-83
2022/07/30 10:51:55;;;;;;;;;44.25;38.25;;;;;29.48;29.26;101594.59;6242854;22;45214;-84
2022/07/30 10:54:32;;;;;;;;;6.25;6.00;;;;;29.57;29.13;101599.38;6250518;22;45477;-87
2022/07/30 10:57:50;;;;;;;;;20.75;17.75;;;;;29.65;29.28;101600.59;6250157;22;45185;-85
2022/07/30 11:00:10;;;;;;;;;3.67;3.67;;;;;29.72;28.90;101571.16;6273961;22;46955;-89
2022/07/30 11:14:27;;;;;;;;;3.25;3.25;;;;;30.73;28.00;101585.50;6095313;23;46382;-91
2022/07/30 11:28:48;;;;;;;;;4.00;3.25;;;;;31.33;27.49;101586.38;5844024;24;45151;-90
2022/07/30 11:31:53;;;;;;;;;4.50;4.50;;;;;31.41;27.27;101574.94;5830730;24;45510;-95
2022/07/30 11:34:24;;;;;;;;;6.33;5.00;;;;;31.47;27.24;101574.44;5891406;24;45401;-89
2022/07/30 11:40:54;;;;;;;;;;;;;;;;;;;;;
2022/07/30 11:43:47;;;;;;;;;5.75;5.00;;;;;31.31;26.77;101557.56;5931811;23;71998;-92
2022/07/30 11:46:56;;;;;;;;;;;;;;;;;;;;;
2022/07/30 11:50:08;;;;;;;;;4.75;4.75;;;;;31.39;26.72;101544.25;6124164;23;72569;-91
2022/07/30 11:53:17;;;;;;;;;5.00;4.75;;;;;31.43;26.50;101551.16;6068160;23;46939;-89
2022/07/30 11:55:48;;;;;;;;;3.00;3.00;;;;;31.36;26.42;101537.16;6070408;23;45397;-88
2022/07/30 11:58:30;;;;;;;;;4.00;3.50;;;;;31.50;26.45;101549.69;6175150;22;45420;-87
2022/07/30 12:01:00;;;;;;;;;3.25;3.25;;;;;31.57;26.72;101545.50;6221175;22;45595;-87
2022/07/30 12:03:27;;;;;;;;;5.00;4.00;;;;;31.68;26.65;101554.66;6247086;22;47129;-86
2022/07/30 12:05:53;;;;;;;;;4.75;4.75;;;;;31.61;26.52;101533.38;6221012;22;45239;-88
2022/07/30 12:08:37;;;;;;;;;4.00;4.00;;;;;31.67;26.17;101544.75;6231278;22;45327;-93
2022/07/30 12:11:03;;;;;;;;;3.25;3.25;;;;;31.78;26.28;101534.75;6227009;22;45544;-90
2022/07/30 12:13:31;;;;;;;;;6.00;4.00;;;;;31.93;26.43;101534.50;6223114;22;47131;-87
2022/07/30 13:09:35;;;;;;;;;3.75;3.75;;;;;33.57;24.00;101512.41;6274057;22;44925;-89
2022/07/30 14:57:17;;;;;;;;;;;;;;;;;;;;;
2022/07/30 15:07:10;;;;;;;;;;;;;;;;;;;;;
2022/07/30 15:09:38;;;;;;;;;2.50;2.50;;;;;32.69;24.72;101421.81;5978608;23;75727;-84
2022/07/30 15:13:15;;;;;;;;;;;;;;;;;;;;;
2022/07/30 15:19:11;;;;;;;;;;;;;;;;;;;;;
2022/07/30 15:25:50;;;;;;;;;3.50;3.25;;;;;33.10;24.60;101416.47;6044204;23;45331;-84
2022/07/30 15:29:05;;;;;;;;;;;;;;;;;;;;;
2022/07/30 15:46:17;;;;;;;;;;;;;;;;;;;;;
2022/07/30 15:49:23;;;;;;;;;1.00;1.00;;;;;32.17;25.18;101428.94;5910124;24;75482;-84
2022/07/30 15:52:20;;;;;;;;;;;;;;;;;;;;;
2022/07/30 15:55:13;;;;;;;;;3.00;3.00;;;;;32.02;25.44;101422.06;5944532;23;45672;-83
2022/07/30 15:58:24;;;;;;;;;;;;;;;;;;;;;
2022/07/30 16:01:20;;;;;;;;;;;;;;;;;;;;;
2022/07/30 16:43:18;;;;;;;;;;;;;;;;;;;;;
2022/07/30 16:54:06;;;;;;;;;4.00;4.00;;;;;32.94;25.35;101406.00;5805355;24;44836;-83
2022/07/30 17:11:02;;;;;;;;;;;;;;;;;;;;;
2022/07/30 17:14:26;;;;;;;;;;;;;;;;;;;;;
2022/07/30 17:20:53;;;;;;;;;;;;;;;;;;;;;
2022/07/30 17:23:38;;;;;;;;;;;;;;;;;;;;;
2022/07/30 17:26:31;;;;;;;;;;;;;;;;;;;;;
2022/07/30 17:30:01;;;;;;;;;;;;;;;;;;;;;
2022/07/30 17:32:39;;;;;;;;;3.00;3.00;;;;;39.52;19.03;101384.59;5970467;23;44953;-85
2022/07/30 17:36:01;;;;;;;;;;;;;;;;;;;;;
2022/07/30 17:42:01;;;;;;;;;5.00;5.00;;;;;37.44;20.69;101387.69;6199450;22;44910;-83
2022/07/30 17:48:04;;;;;;;;;2.75;2.75;;;;;36.45;21.10;101385.34;6071363;23;45072;-83
2022/07/30 17:54:34;;;;;;;;;;;;;;;;;;;;;
2022/07/30 17:57:16;;;;;;;;;5.00;5.00;;;;;35.21;22.85;101382.28;6136461;23;73141;-83
2022/07/30 18:00:00;;;;;;;;;;;;;;;;;;;;;
2022/07/30 18:12:56;;;;;;;;;5.25;5.00;;;;;33.77;24.52;101417.75;6037076;23;45873;-87
2022/07/30 18:35:55;;;;;;;;;5.75;4.50;;;;;32.26;26.69;101427.28;5883719;23;45463;-87
2022/07/30 18:38:20;;;;;;;;;3.25;3.25;;;;;32.06;26.79;101429.00;5954555;23;46991;-88
2022/07/30 18:40:56;;;;;;;;;9.25;6.50;;;;;31.95;26.93;101429.03;5964249;23;45401;-90
2022/07/30 18:43:23;;;;;;;;;11.50;8.50;;;;;31.71;27.10;101426.44;6133191;23;45408;-89
2022/07/30 18:46:09;;;;;;;;;;;;;;;;;;;;;
2022/07/30 18:48:38;;;;;;;;;6.75;6.75;;;;;31.41;27.88;101438.84;6189552;23;74263;-89
2022/07/30 18:51:13;;;;;;;;;7.00;6.25;;;;;31.27;28.12;101441.75;6190640;23;45436;-85
2022/07/30 18:53:38;;;;;;;;;8.25;7.00;;;;;31.09;28.15;101434.09;6164544;23;45189;-88
2022/07/30 18:56:04;;;;;;;;;4.75;4.75;;;;;30.94;28.59;101429.88;6182144;22;45278;-82
2022/07/30 18:58:30;;;;;;;;;8.00;8.00;;;;;30.78;28.57;101439.19;6189692;22;46869;-82
2022/07/30 19:00:59;;;;;;;;;4.75;4.75;;;;;30.63;29.10;101453.09;6231237;22;45482;-82
2022/07/30 19:04:14;;;;;;;;;;;;;;;;;;;;;
2022/07/30 19:08:27;;;;;;;;;;;;;;;;;;;;;
2022/07/30 19:21:54;;;;;;;;;;;;;;;;;;;;;
2022/07/30 19:26:17;;;;;;;;;;;;;;;;;;;;;
2022/07/30 19:28:35;;;;;;;;;;;;;;;;;;;;;
2022/07/30 19:32:53;;;;;;;;;;;;;;;;;;;;;
2022/07/30 19:36:19;;;;;;;;;;;;;;;;;;;;;
2022/07/30 19:46:23;;;;;;;;;;;;;;;;;;;;;
2022/07/30 19:49:50;;;;;;;;;;;;;;;;;;;;;
2022/07/30 19:52:47;;;;;;;;;5.50;4.50;;;;;28.02;35.28;101490.56;6038504;23;46754;-83
2022/07/30 19:56:01;;;;;;;;;6.75;6.00;;;;;27.99;35.24;101499.75;6053445;23;45466;-81
2022/07/30 19:58:19;;;;;;;;;7.00;5.25;;;;;27.83;35.38;101490.88;6069289;23;45389;-83
2022/07/30 20:01:34;;;;;;;;;4.75;4.75;;;;;27.85;35.95;101514.16;6177049;23;45435;-84
2022/07/30 20:04:14;;;;;;;;;;;;;;;;;;;;;
2022/07/30 20:06:59;;;;;;;;;5.25;5.25;;;;;27.64;36.17;101516.38;6179755;23;73032;-82
2022/07/30 20:12:13;;;;;;;;;6.00;4.25;;;;;27.47;36.56;101516.53;6172606;23;44837;-82
2022/07/30 20:14:39;;;;;;;;;5.00;5.00;;;;;27.47;37.05;101530.94;6198742;23;45665;-82
2022/07/30 20:17:08;;;;;;;;;5.00;5.00;;;;;27.44;36.95;101527.56;6203253;23;45183;-83